createdAt,value
2022-10-19T00:01:22.674Z,89.10
2022-10-19T00:03:52.563Z,90.09
2022-10-19T00:06:25.556Z,91.25
2022-10-19T00:08:58.132Z,90.31
2022-10-19T00:11:25.157Z,91.41
2022-10-19T00:13:53.429Z,92.34
2022-10-19T00:16:21.343Z,91.25
2022-10-19T00:18:47.946Z,90.99
2022-10-19T00:21:16.728Z,90.86
2022-10-19T00:23:44.427Z,90.28
2022-10-19T00:26:11.865Z,91.64
2022-10-19T00:28:38.471Z,91.21
2022-10-19T00:31:07.267Z,92.56
2022-10-19T00:33:34.139Z,92.72
2022-10-19T00:36:01.331Z,92.82
2022-10-19T00:38:28.166Z,91.78
2022-10-19T00:40:54.727Z,90.67
2022-10-19T00:43:27.267Z,89.77
2022-10-19T00:45:53.930Z,92.49
2022-10-19T00:48:29.623Z,92.83
2022-10-19T00:50:57.358Z,93.46
2022-10-19T00:53:26.360Z,93.54
2022-10-19T00:55:53.528Z,94.08
2022-10-19T00:58:20.178Z,93.43
2022-10-19T01:00:46.823Z,91.38
2022-10-19T01:03:14.407Z,91.08
2022-10-19T01:05:41.454Z,90.85
2022-10-19T01:08:10.038Z,93.92
2022-10-19T01:10:51.555Z,93.08
2022-10-19T01:13:33.303Z,93.50
2022-10-19T01:16:19.595Z,91.85
2022-10-19T01:19:12.680Z,91.11
2022-10-19T01:21:57.744Z,89.66
2022-10-19T01:24:43.359Z,91.62
2022-10-19T01:27:31.204Z,90.86
2022-10-19T01:30:13.182Z,90.78
2022-10-19T01:33:11.623Z,90.90
2022-10-19T01:36:03.742Z,90.64
2022-10-19T01:38:40.957Z,92.75
2022-10-19T01:41:14.986Z,96.05
2022-10-19T01:43:50.648Z,94.82
2022-10-19T01:46:27.392Z,94.16
2022-10-19T01:49:24.633Z,93.46
2022-10-19T01:54:34.161Z,92.63
2022-10-19T01:57:04.879Z,93.75
2022-10-19T01:59:33.073Z,94.65
2022-10-19T02:02:02.045Z,93.83
2022-10-19T02:04:28.837Z,93.43
2022-10-19T02:06:55.841Z,93.36
2022-10-19T02:09:22.606Z,94.10
2022-10-19T02:11:57.591Z,93.86
2022-10-19T02:14:29.491Z,94.37
2022-10-19T02:17:15.938Z,94.49
2022-10-19T02:19:43.420Z,94.43
2022-10-19T02:22:11.667Z,93.69
2022-10-19T02:24:38.317Z,95.31
2022-10-19T02:27:06.765Z,94.52
2022-10-19T02:29:34.817Z,94.76
2022-10-19T02:32:02.298Z,94.12
2022-10-19T02:34:29.621Z,94.67
2022-10-19T02:36:56.072Z,95.21
2022-10-19T02:39:23.422Z,96.36
2022-10-19T02:41:49.782Z,95.91
2022-10-19T02:44:25.340Z,94.82
2022-10-19T02:47:18.348Z,94.77
2022-10-19T02:49:45.517Z,93.78
2022-10-19T02:52:13.539Z,92.50
2022-10-19T02:54:42.655Z,91.01
2022-10-19T02:57:25.954Z,91.42
2022-10-19T02:59:53.094Z,94.24
2022-10-19T03:02:21.406Z,94.48
2022-10-19T03:07:21.401Z,93.91
2022-10-19T03:09:47.996Z,94.01
2022-10-19T03:12:15.315Z,94.61
2022-10-19T03:14:42.406Z,95.30
2022-10-19T03:17:09.834Z,95.27
2022-10-19T03:19:36.630Z,95.71
2022-10-19T03:22:03.472Z,95.56
2022-10-19T03:24:30.505Z,95.42
2022-10-19T03:26:57.175Z,94.97
2022-10-19T03:29:23.838Z,92.91
2022-10-19T03:31:50.547Z,94.95
2022-10-19T03:34:17.404Z,94.74
2022-10-19T03:36:43.992Z,94.90
2022-10-19T03:39:12.937Z,95.99
2022-10-19T03:41:40.204Z,96.28
2022-10-19T03:44:08.403Z,96.83
2022-10-19T03:46:35.725Z,95.59
2022-10-19T03:49:02.555Z,95.36
2022-10-19T03:51:31.170Z,94.90
2022-10-19T03:54:00.378Z,93.03
2022-10-19T03:56:28.998Z,92.23
2022-10-19T03:58:57.249Z,93.68
2022-10-19T04:01:32.707Z,93.08
2022-10-19T04:04:01.891Z,93.59
2022-10-19T04:06:31.273Z,93.98
2022-10-19T04:08:58.642Z,92.59
2022-10-19T04:11:26.842Z,92.95
2022-10-19T04:13:54.624Z,92.71
2022-10-19T04:16:22.339Z,92.56
2022-10-19T04:18:49.163Z,91.26
2022-10-19T04:21:24.835Z,91.62
2022-10-19T04:23:53.358Z,92.00
2022-10-19T04:26:20.543Z,92.08
2022-10-19T04:28:47.302Z,92.23
2022-10-19T04:31:14.128Z,91.75
2022-10-19T04:33:41.317Z,94.33
2022-10-19T04:36:10.631Z,94.18
2022-10-19T04:38:37.749Z,94.12
2022-10-19T04:41:10.501Z,92.59
2022-10-19T04:43:37.992Z,93.63
2022-10-19T04:46:09.891Z,94.33
2022-10-19T04:48:38.383Z,92.67
2022-10-19T04:51:05.691Z,94.35
2022-10-19T04:53:32.451Z,94.59
2022-10-19T04:55:59.216Z,95.35
2022-10-19T04:58:26.155Z,94.17
2022-10-19T05:00:52.739Z,95.11
2022-10-19T05:03:19.320Z,95.42
2022-10-19T05:05:45.856Z,95.87
2022-10-19T05:08:12.565Z,94.97
2022-10-19T05:10:39.918Z,95.78
2022-10-19T05:13:07.115Z,95.99
2022-10-19T05:15:33.687Z,96.82
2022-10-19T05:18:00.311Z,96.45
2022-10-19T05:20:27.338Z,96.01
2022-10-19T05:22:53.882Z,95.85
2022-10-19T05:25:20.430Z,94.69
2022-10-19T05:27:51.187Z,93.71
2022-10-19T05:30:17.865Z,93.29
2022-10-19T05:32:44.430Z,93.67
2022-10-19T05:35:11.039Z,94.48
2022-10-19T05:37:37.743Z,94.92
2022-10-19T05:40:04.880Z,94.63
2022-10-19T05:42:31.458Z,95.46
2022-10-19T05:44:57.948Z,96.28
2022-10-19T05:47:27.364Z,94.36
2022-10-19T05:49:56.795Z,93.94
2022-10-19T05:52:23.372Z,93.28
2022-10-19T05:54:50.029Z,90.81
2022-10-19T05:57:16.552Z,87.79
2022-10-19T05:59:43.148Z,85.56
2022-10-19T06:02:14.185Z,82.70
2022-10-19T06:04:40.743Z,80.85
2022-10-19T06:07:07.361Z,79.56
2022-10-19T06:09:36.327Z,76.37
2022-10-19T06:12:03.762Z,76.29
2022-10-19T06:14:30.228Z,74.71
2022-10-19T06:16:56.964Z,73.93
2022-10-19T06:19:23.478Z,73.43
2022-10-19T06:21:50.012Z,73.68
2022-10-19T06:24:16.619Z,73.17
2022-10-19T06:26:43.208Z,72.64
2022-10-19T06:29:10.066Z,70.72
2022-10-19T06:31:36.724Z,69.40
2022-10-19T06:34:03.443Z,68.65
2022-10-19T06:36:31.286Z,68.75
2022-10-19T06:38:59.836Z,68.30
2022-10-19T06:41:26.465Z,67.44
2022-10-19T06:43:54.202Z,69.67
2022-10-19T06:46:23.494Z,69.91
2022-10-19T06:48:54.771Z,67.32
2022-10-19T06:51:22.212Z,64.93
2022-10-19T06:53:51.673Z,63.17
2022-10-19T06:56:24.537Z,62.12
2022-10-19T06:58:51.132Z,61.02
2022-10-19T07:01:18.299Z,60.23
2022-10-19T07:03:44.954Z,59.35
2022-10-19T07:06:13.181Z,60.46
2022-10-19T07:08:41.811Z,61.03
2022-10-19T07:11:11.034Z,59.90
2022-10-19T07:13:37.693Z,59.42
2022-10-19T07:16:08.032Z,59.72
2022-10-19T07:18:36.191Z,59.43
2022-10-19T07:21:06.023Z,59.11
2022-10-19T07:23:34.340Z,56.96
2022-10-19T07:26:09.815Z,56.51
2022-10-19T07:28:36.366Z,56.21
2022-10-19T07:31:08.213Z,54.83
2022-10-19T07:33:35.170Z,53.19
2022-10-19T07:36:03.924Z,53.71
2022-10-19T07:38:31.917Z,52.30
2022-10-19T07:41:18.574Z,53.53
2022-10-19T07:43:46.883Z,52.09
2022-10-19T07:46:16.315Z,51.38
2022-10-19T07:48:43.849Z,51.01
2022-10-19T07:51:12.110Z,49.55
2022-10-19T07:53:39.512Z,49.25
2022-10-19T07:56:07.302Z,49.11
2022-10-19T07:58:34.549Z,47.74
2022-10-19T08:01:03.606Z,47.07
2022-10-19T08:06:19.064Z,44.74
2022-10-19T08:08:47.256Z,43.81
2022-10-19T08:11:17.531Z,42.56
2022-10-19T08:13:44.829Z,41.72
2022-10-19T08:16:25.538Z,41.21
2022-10-19T08:18:56.105Z,39.79
2022-10-19T08:21:23.014Z,39.93
2022-10-19T08:23:49.681Z,40.25
2022-10-19T08:26:16.520Z,39.26
2022-10-19T08:28:43.084Z,38.93
2022-10-19T08:31:15.763Z,39.29
2022-10-19T08:33:43.038Z,37.66
2022-10-19T08:36:10.378Z,36.19
2022-10-19T08:38:37.963Z,35.52
2022-10-19T08:41:20.791Z,35.05
2022-10-19T08:44:05.100Z,34.46
2022-10-19T08:46:43.005Z,34.72
2022-10-19T08:49:15.881Z,34.65
2022-10-19T08:51:46.070Z,34.05
2022-10-19T08:54:17.552Z,32.75
2022-10-19T08:57:11.235Z,32.19
2022-10-19T08:59:48.739Z,32.90
2022-10-19T09:02:42.247Z,30.94
2022-10-19T09:06:01.274Z,30.65
2022-10-19T09:08:28.453Z,31.10
2022-10-19T09:10:55.317Z,31.67
2022-10-19T09:13:41.486Z,31.77
2022-10-19T09:16:20.024Z,34.27
2022-10-19T09:18:50.698Z,34.38
2022-10-19T09:21:28.179Z,36.41
2022-10-19T09:24:19.210Z,37.18
2022-10-19T09:26:55.262Z,39.65
2022-10-19T09:29:32.180Z,40.27
2022-10-19T09:32:01.615Z,39.24
2022-10-19T09:34:43.582Z,43.67
2022-10-19T09:37:20.070Z,42.32
2022-10-19T09:39:54.128Z,42.57
2022-10-19T09:42:30.414Z,40.10
2022-10-19T09:45:00.898Z,41.50
2022-10-19T09:47:38.196Z,40.54
2022-10-19T09:50:25.872Z,40.45
2022-10-19T09:52:57.495Z,40.96
2022-10-19T09:55:29.939Z,40.06
2022-10-19T09:58:05.776Z,40.07
2022-10-19T10:00:36.980Z,40.72
2022-10-19T10:03:06.098Z,39.34
2022-10-19T10:05:40.735Z,39.42
2022-10-19T10:08:18.119Z,41.67
2022-10-19T10:10:56.587Z,40.39
2022-10-19T10:13:25.991Z,39.56
2022-10-19T10:16:06.082Z,39.05
2022-10-19T10:18:38.502Z,38.65
2022-10-19T10:21:14.702Z,39.34
2022-10-19T10:23:41.378Z,39.39
2022-10-19T10:26:17.875Z,39.05
2022-10-19T10:28:50.115Z,39.77
2022-10-19T10:31:22.678Z,40.26
2022-10-19T10:34:10.886Z,38.30
2022-10-19T10:36:54.014Z,38.47
2022-10-19T10:39:20.856Z,40.60
2022-10-19T10:41:49.090Z,38.33
2022-10-19T10:44:23.450Z,38.44
2022-10-19T10:46:51.918Z,37.57
2022-10-19T10:49:25.265Z,38.71
2022-10-19T10:51:56.843Z,37.46
2022-10-19T10:54:31.289Z,39.03
2022-10-19T10:57:15.688Z,40.78
2022-10-19T11:00:03.669Z,39.28
2022-10-19T11:03:00.785Z,37.39
2022-10-19T11:05:49.791Z,36.19
2022-10-19T11:08:31.976Z,36.33
2022-10-19T11:11:19.749Z,35.87
2022-10-19T11:13:53.056Z,35.70
2022-10-19T11:16:41.989Z,36.82
2022-10-19T11:19:25.742Z,35.39
2022-10-19T11:22:05.691Z,36.00
2022-10-19T11:24:48.729Z,34.79
2022-10-19T11:27:52.390Z,34.46
2022-10-19T11:30:22.225Z,34.85
2022-10-19T11:33:07.021Z,34.62
2022-10-19T11:35:55.009Z,34.97
2022-10-19T11:38:40.077Z,39.63
2022-10-19T11:41:18.226Z,34.52
2022-10-19T11:43:51.175Z,34.62
2022-10-19T11:46:29.839Z,37.09
2022-10-19T11:49:05.118Z,30.20
2022-10-19T11:51:35.683Z,32.29
2022-10-19T11:54:33.240Z,30.66
2022-10-19T11:57:16.235Z,30.06
2022-10-19T12:00:15.370Z,30.92
2022-10-19T12:03:12.486Z,30.88
2022-10-19T12:05:41.759Z,30.28
2022-10-19T12:08:14.085Z,28.60
2022-10-19T12:10:52.936Z,30.01
2022-10-19T12:13:27.406Z,29.31
2022-10-19T12:15:56.494Z,28.84
2022-10-19T12:18:31.855Z,29.54
2022-10-19T12:21:02.393Z,30.61
2022-10-19T12:23:32.984Z,30.49
2022-10-19T12:26:03.211Z,29.77
2022-10-19T12:28:34.187Z,29.83
2022-10-19T12:31:02.598Z,29.31
2022-10-19T12:33:37.051Z,29.72
2022-10-19T12:36:13.753Z,30.29
2022-10-19T12:39:00.058Z,30.51
2022-10-19T12:41:31.646Z,29.68
2022-10-19T12:44:28.614Z,29.27
2022-10-19T12:47:10.430Z,30.75
2022-10-19T12:49:44.429Z,29.67
2022-10-19T12:52:12.666Z,29.16
2022-10-19T12:54:41.391Z,30.36
2022-10-19T12:57:25.908Z,29.69
2022-10-19T13:00:00.663Z,30.09
2022-10-19T13:02:34.135Z,29.46
2022-10-19T13:05:01.588Z,30.72
2022-10-19T13:07:36.661Z,29.44
2022-10-19T13:10:07.181Z,29.89
2022-10-19T13:12:46.229Z,29.98
2022-10-19T13:15:34.556Z,29.35
2022-10-19T13:18:16.808Z,28.44
2022-10-19T13:20:51.748Z,26.01
2022-10-19T13:23:18.411Z,27.64
2022-10-19T13:25:44.955Z,28.15
2022-10-19T13:28:12.784Z,27.41
2022-10-19T13:30:39.365Z,27.92
2022-10-19T13:33:31.404Z,27.45
2022-10-19T13:36:00.758Z,28.01
2022-10-19T13:38:41.196Z,26.69
2022-10-19T13:41:15.517Z,27.61
2022-10-19T13:44:12.061Z,25.34
2022-10-19T13:46:44.394Z,27.22
2022-10-19T13:49:10.863Z,27.46
2022-10-19T13:51:56.127Z,28.05
2022-10-19T13:54:43.656Z,28.43
2022-10-19T13:57:33.663Z,28.43
2022-10-19T14:00:21.883Z,29.07
2022-10-19T14:02:57.241Z,27.64
2022-10-19T14:05:42.306Z,29.64
2022-10-19T14:08:33.379Z,30.14
2022-10-19T14:11:26.342Z,27.90
2022-10-19T14:14:10.883Z,30.06
2022-10-19T14:17:01.426Z,29.15
2022-10-19T14:19:33.183Z,28.89
2022-10-19T14:22:18.763Z,30.02
2022-10-19T14:24:45.497Z,30.50
2022-10-19T14:27:18.805Z,28.71
2022-10-19T14:29:48.027Z,31.70
2022-10-19T14:32:15.046Z,31.49
2022-10-19T14:34:47.302Z,29.90
2022-10-19T14:37:22.613Z,29.24
2022-10-19T14:40:05.260Z,29.05
2022-10-19T14:42:44.052Z,29.73
2022-10-19T14:45:24.386Z,31.94
2022-10-19T14:48:02.328Z,30.40
2022-10-19T14:50:55.043Z,31.04
2022-10-19T14:53:41.910Z,32.38
2022-10-19T14:56:10.892Z,32.46
2022-10-19T14:58:44.408Z,33.33
2022-10-19T15:01:12.267Z,32.43
2022-10-19T15:03:43.649Z,33.05
2022-10-19T15:06:17.885Z,32.88
2022-10-19T15:08:49.930Z,33.22
2022-10-19T15:11:39.707Z,34.03
2022-10-19T15:14:14.450Z,34.46
2022-10-19T15:16:49.818Z,33.18
2022-10-19T15:19:32.363Z,34.37
2022-10-19T15:22:14.132Z,35.08
2022-10-19T15:25:02.078Z,34.33
2022-10-19T15:27:34.592Z,35.34
2022-10-19T15:30:19.469Z,34.76
2022-10-19T15:32:48.960Z,33.69
2022-10-19T15:35:24.356Z,34.69
2022-10-19T15:37:51.452Z,35.36
2022-10-19T15:40:44.429Z,35.28
2022-10-19T15:43:35.994Z,35.76
2022-10-19T15:46:20.108Z,35.05
2022-10-19T15:48:52.349Z,35.49
2022-10-19T15:51:24.729Z,35.65
2022-10-19T15:53:57.448Z,34.88
2022-10-19T15:56:26.002Z,34.90
2022-10-19T15:58:54.864Z,35.29
2022-10-19T16:01:26.115Z,34.94
2022-10-19T16:03:53.710Z,36.06
2022-10-19T16:06:22.445Z,34.66
2022-10-19T16:08:51.212Z,34.80
2022-10-19T16:11:20.028Z,35.88
2022-10-19T16:13:47.247Z,35.54
2022-10-19T16:16:29.201Z,36.59
2022-10-19T16:18:56.528Z,36.61
2022-10-19T16:21:25.553Z,36.04
2022-10-19T16:23:52.290Z,37.13
2022-10-19T16:26:19.383Z,36.82
2022-10-19T16:28:45.938Z,37.47
2022-10-19T16:31:12.672Z,38.59
2022-10-19T16:33:39.185Z,38.44
2022-10-19T16:36:07.533Z,40.24
2022-10-19T16:38:34.775Z,38.54
2022-10-19T16:41:03.333Z,37.94
2022-10-19T16:43:30.421Z,38.16
2022-10-19T16:45:57.486Z,39.27
2022-10-19T16:48:25.419Z,38.15
2022-10-19T16:51:24.351Z,38.12
2022-10-19T16:53:53.709Z,37.53
2022-10-19T16:56:20.612Z,37.77
2022-10-19T16:58:47.271Z,37.09
2022-10-19T17:01:17.090Z,38.04
2022-10-19T17:03:44.851Z,38.66
2022-10-19T17:06:12.451Z,39.04
2022-10-19T17:09:02.674Z,39.28
2022-10-19T17:11:29.563Z,38.44
2022-10-19T17:13:58.507Z,38.65
2022-10-19T17:16:26.327Z,39.62
2022-10-19T17:18:55.261Z,40.17
2022-10-19T17:21:24.285Z,39.93
2022-10-19T17:23:59.277Z,40.16
2022-10-19T17:26:28.130Z,38.93
2022-10-19T17:28:55.817Z,41.14
2022-10-19T17:31:22.700Z,40.34
2022-10-19T17:33:49.841Z,40.51
2022-10-19T17:36:19.238Z,40.65
2022-10-19T17:38:46.670Z,43.84
2022-10-19T17:41:14.673Z,42.15
2022-10-19T17:43:43.225Z,42.21
2022-10-19T17:46:12.037Z,43.78
2022-10-19T17:48:40.428Z,42.90
2022-10-19T17:51:10.986Z,42.81
2022-10-19T17:53:37.599Z,42.35
2022-10-19T17:56:06.818Z,42.54
2022-10-19T17:58:39.033Z,42.24
2022-10-19T18:01:08.729Z,41.56
2022-10-19T18:03:36.410Z,42.78
2022-10-19T18:06:09.648Z,43.06
2022-10-19T18:08:41.006Z,42.92
2022-10-19T18:11:14.511Z,42.89
2022-10-19T18:13:41.696Z,43.46
2022-10-19T18:16:13.958Z,45.56
2022-10-19T18:19:19.104Z,44.41
2022-10-19T18:21:47.423Z,42.85
2022-10-19T18:24:19.669Z,43.21
2022-10-19T18:26:47.463Z,43.27
2022-10-19T18:29:20.422Z,42.88
2022-10-19T18:31:52.317Z,41.82
2022-10-19T18:34:22.543Z,41.81
2022-10-19T18:36:50.121Z,42.13
2022-10-19T18:39:17.022Z,42.38
2022-10-19T18:41:43.692Z,42.53
2022-10-19T18:44:13.182Z,42.20
2022-10-19T18:46:39.980Z,42.87
2022-10-19T18:49:08.670Z,42.00
2022-10-19T18:51:36.079Z,41.96
2022-10-19T18:54:02.559Z,42.27
2022-10-19T18:56:33.509Z,42.20
2022-10-19T18:59:00.110Z,42.27
2022-10-19T19:01:28.534Z,50.65
2022-10-19T19:03:57.631Z,50.01
2022-10-19T19:06:29.438Z,55.43
2022-10-19T19:09:00.549Z,49.72
2022-10-19T19:11:31.832Z,47.37
2022-10-19T19:14:21.239Z,51.46
2022-10-19T19:16:47.856Z,50.75
2022-10-19T19:19:16.081Z,53.29
2022-10-19T19:21:44.471Z,49.86
2022-10-19T19:24:14.809Z,49.72
2022-10-19T19:26:46.765Z,45.29
2022-10-19T19:29:15.597Z,48.77
2022-10-19T19:31:42.199Z,53.24
2022-10-19T19:34:11.899Z,51.93
2022-10-19T19:39:18.836Z,56.29
2022-10-19T19:41:46.076Z,55.67
2022-10-19T19:44:12.611Z,52.11
2022-10-19T19:46:39.165Z,56.09
2022-10-19T19:49:05.894Z,56.02
2022-10-19T19:51:33.438Z,53.52
2022-10-19T19:54:00.065Z,53.27
2022-10-19T19:56:26.867Z,53.81
2022-10-19T19:58:59.056Z,54.21
2022-10-19T20:01:25.799Z,54.99
2022-10-19T20:03:52.590Z,54.38
2022-10-19T20:06:23.509Z,55.25
2022-10-19T20:08:52.674Z,53.64
2022-10-19T20:11:19.305Z,55.26
2022-10-19T20:13:45.995Z,55.91
2022-10-19T20:16:15.326Z,53.57
2022-10-19T20:18:44.870Z,53.42
2022-10-19T20:21:12.033Z,54.52
2022-10-19T20:23:38.715Z,56.21
2022-10-19T20:26:05.399Z,57.65
2022-10-19T20:28:33.156Z,56.40
2022-10-19T20:31:05.880Z,54.71
2022-10-19T20:33:34.706Z,58.06
2022-10-19T20:36:14.285Z,57.86
2022-10-19T20:38:46.017Z,57.86
2022-10-19T20:41:12.537Z,60.03
2022-10-19T20:43:39.174Z,60.24
2022-10-19T20:46:12.546Z,60.68
2022-10-19T20:48:40.282Z,61.71
2022-10-19T20:51:14.699Z,60.87
2022-10-19T20:53:42.575Z,61.43
2022-10-19T20:56:10.812Z,61.76
2022-10-19T20:58:43.230Z,59.32
2022-10-19T21:01:10.953Z,60.83
2022-10-19T21:03:37.888Z,62.03
2022-10-19T21:06:08.709Z,62.17
2022-10-19T21:08:36.113Z,61.64
2022-10-19T21:11:11.398Z,62.12
2022-10-19T21:13:37.928Z,61.58
2022-10-19T21:16:09.259Z,62.25
2022-10-19T21:18:35.943Z,60.87
2022-10-19T21:21:11.475Z,61.34
2022-10-19T21:23:38.224Z,61.44
2022-10-19T21:26:04.796Z,60.36
2022-10-19T21:28:31.455Z,60.63
2022-10-19T21:31:02.616Z,60.99
2022-10-19T21:33:29.179Z,61.56
2022-10-19T21:35:55.797Z,61.77
2022-10-19T21:38:22.329Z,62.88
2022-10-19T21:40:48.876Z,63.62
2022-10-19T21:43:15.379Z,63.93
2022-10-19T21:45:41.903Z,65.08
2022-10-19T21:48:08.407Z,65.86
2022-10-19T21:50:34.914Z,64.59
2022-10-19T21:53:01.467Z,64.27
2022-10-19T21:55:29.669Z,63.87
2022-10-19T21:57:56.179Z,64.15
2022-10-19T22:00:22.711Z,63.29
2022-10-19T22:02:49.228Z,63.05
2022-10-19T22:05:15.811Z,62.37
2022-10-19T22:07:42.332Z,62.37
2022-10-19T22:10:09.358Z,62.41
2022-10-19T22:12:36.031Z,63.56
2022-10-19T22:15:02.713Z,63.90
2022-10-19T22:17:29.259Z,64.32
2022-10-19T22:19:55.756Z,64.68
2022-10-19T22:22:22.324Z,63.58
2022-10-19T22:24:48.856Z,64.68
2022-10-19T22:27:15.445Z,65.31
2022-10-19T22:29:41.984Z,66.52
2022-10-19T22:32:08.533Z,67.62
2022-10-19T22:34:35.038Z,67.78
2022-10-19T22:37:01.600Z,69.20
2022-10-19T22:39:30.046Z,69.38
2022-10-19T22:42:52.678Z,69.74
2022-10-19T22:46:15.224Z,67.83
2022-10-19T22:49:38.088Z,68.10
2022-10-19T22:52:57.349Z,69.62
2022-10-19T22:55:24.037Z,70.41
2022-10-19T22:57:50.596Z,71.43
2022-10-19T23:00:17.157Z,71.92
2022-10-19T23:02:43.677Z,72.20
2022-10-19T23:05:10.174Z,73.34
2022-10-19T23:07:38.224Z,73.76
2022-10-19T23:10:06.038Z,74.33
2022-10-19T23:12:32.582Z,75.12
2022-10-19T23:14:59.089Z,75.45
2022-10-19T23:17:25.587Z,76.43
2022-10-19T23:19:52.072Z,76.82
2022-10-19T23:22:18.564Z,76.75
2022-10-19T23:24:45.072Z,77.54
2022-10-19T23:27:13.495Z,77.93
2022-10-19T23:29:40.064Z,77.75
2022-10-19T23:32:06.811Z,78.05
2022-10-19T23:37:04.730Z,76.78
2022-10-19T23:39:31.284Z,78.30
2022-10-19T23:41:57.851Z,78.35
2022-10-19T23:44:24.428Z,78.52
2022-10-19T23:46:50.967Z,78.49
2022-10-19T23:49:17.500Z,78.86
2022-10-19T23:51:44.052Z,79.32
2022-10-19T23:54:10.536Z,79.94
2022-10-19T23:56:37.055Z,81.08
2022-10-19T23:59:05.307Z,81.25
